Portlethen, United Kingdom
Current Conditions -  °F | °C
As of 3:20 AM on Thursday 23 Oct 2014 (Local Time) from EGPD Reporting Station
Few Clouds Few Clouds  
Wind Chill: 52°   Ceiling: Unl
Heat Index: 52°   Visibility: 6mi
Dew Point: 48°   Wind: 7mph
Humidity: 88%   Direction: 190°S
Pressure: 29.77"   Gusts: NA
Location:  57.05°N, 2.13°W
Report Text: EGPD 230220Z AUTO 19006KT 160V240 9999 FEW015/// 11/09 Q1008
Loading
Personal Weather Stations






























Interactive Weather Map
Tropical Storm Tracking
New forecast layout! Learn more

10-Day Weather Forecast

Advertisements
Track Severe Weather on mobile